Time;durP1;ratioP1;P1;durP2;ratioP2;P2;SDS_P1;SDS_P2;PMS_P1;PMS_P2;Temp;Humidity;BMP_temperature;BMP_pressure;BME280_temperature;BME280_humidity;BME280_pressure;Samples;Min_cycle;Max_cycle;Signal;HPM_P1;HPM_P2
2022/09/29 00:00:36;;;;;;;;;;;10.80;91.20;;;;;;5044449;28;20504;-71
2022/09/29 00:03:02;;;;;;;;;;;10.80;91.20;;;;;;5042499;28;19935;-70
2022/09/29 00:05:28;;;;;;;;;;;10.80;91.20;;;;;;5044548;28;19917;-70
2022/09/29 00:07:53;;;;;;;;;;;10.70;91.20;;;;;;5030167;28;19909;-71
2022/09/29 00:10:19;;;;;;;;;;;10.80;91.20;;;;;;5043719;28;20002;-70
2022/09/29 00:12:44;;;;;;;;;;;10.80;91.20;;;;;;5046193;28;19917;-71
2022/09/29 00:15:10;;;;;;;;;;;10.70;91.20;;;;;;5046202;28;19916;-71
2022/09/29 00:17:35;;;;;;;;;;;10.70;91.20;;;;;;5050412;28;20622;-71
2022/09/29 00:20:01;;;;;;;;;;;10.70;91.20;;;;;;5046029;28;20027;-71
2022/09/29 00:22:26;;;;;;;;;;;10.60;91.50;;;;;;5048491;28;20358;-71
2022/09/29 00:24:52;;;;;;;;;;;10.70;91.20;;;;;;5046409;28;19921;-71
2022/09/29 00:27:18;;;;;;;;;;;10.70;91.20;;;;;;5048955;28;19935;-71
2022/09/29 00:29:43;;;;;;;;;;;10.70;91.20;;;;;;5046435;28;19920;-71
2022/09/29 00:32:09;;;;;;;;;;;10.60;91.20;;;;;;5048489;28;20465;-71
2022/09/29 00:34:34;;;;;;;;;;;10.60;91.20;;;;;;5047448;28;19917;-71
2022/09/29 00:37:00;;;;;;;;;;;10.60;91.20;;;;;;5048606;28;20642;-70
2022/09/29 00:39:25;;;;;;;;;;;10.60;91.20;;;;;;5027726;28;19917;-70
2022/09/29 00:41:50;;;;;;;;;;;10.60;91.20;;;;;;5048304;28;19917;-71
2022/09/29 00:44:18;;;;;;;;;;;10.60;91.20;;;;;;5049786;28;19959;-71
2022/09/29 00:46:43;;;;;;;;;;;10.50;91.20;;;;;;5046106;28;19923;-71
2022/09/29 00:49:12;;;;;;;;;;;10.60;91.20;;;;;;5048672;28;19996;-71
2022/09/29 00:51:39;;;;;;;;;;;10.50;91.20;;;;;;5046056;28;19948;-71
2022/09/29 00:54:06;;;;;;;;;;;10.50;91.20;;;;;;5049193;28;19966;-70
2022/09/29 00:56:32;;;;;;;;;;;10.50;91.10;;;;;;5045681;28;19920;-70
2022/09/29 00:59:00;;;;;;;;;;;10.50;91.20;;;;;;5047760;28;19913;-71
2022/09/29 01:01:27;;;;;;;;;;;10.50;91.20;;;;;;5047127;28;19912;-71
2022/09/29 01:03:55;;;;;;;;;;;10.50;91.10;;;;;;5047726;28;19971;-71
2022/09/29 01:06:23;;;;;;;;;;;10.50;91.10;;;;;;5045506;28;20281;-71
2022/09/29 01:08:56;;;;;;;;;;;10.50;91.10;;;;;;5047583;28;19952;-71
2022/09/29 01:11:22;;;;;;;;;;;10.50;91.10;;;;;;5045514;28;19920;-71
2022/09/29 01:13:48;;;;;;;;;;;10.50;91.10;;;;;;5047693;28;19917;-71
2022/09/29 01:16:13;;;;;;;;;;;10.50;91.10;;;;;;5044968;28;19913;-70
2022/09/29 01:18:40;;;;;;;;;;;10.50;91.10;;;;;;5034990;28;19943;-71
2022/09/29 01:21:24;;;;;;;;;;;10.50;91.10;;;;;;5044426;28;19939;-71
2022/09/29 01:23:50;;;;;;;;;;;10.50;91.10;;;;;;5046080;28;19932;-71
2022/09/29 01:26:15;;;;;;;;;;;10.50;91.10;;;;;;5045443;28;19917;-71
2022/09/29 01:28:59;;;;;;;;;;;10.50;91.10;;;;;;5050256;28;19921;-70
2022/09/29 01:31:47;;;;;;;;;;;10.50;91.10;;;;;;5048214;28;20385;-71
2022/09/29 01:34:32;;;;;;;;;;;10.50;91.10;;;;;;5048334;28;19916;-71
2022/09/29 01:37:17;;;;;;;;;;;10.50;91.10;;;;;;5044883;28;19960;-71
2022/09/29 01:39:50;;;;;;;;;;;10.50;91.10;;;;;;5046559;28;19925;-71
2022/09/29 01:42:21;;;;;;;;;;;10.50;91.20;;;;;;5044760;28;20607;-70
2022/09/29 01:44:53;;;;;;;;;;;10.50;91.20;;;;;;5047364;28;19921;-71
2022/09/29 01:47:25;;;;;;;;;;;10.50;91.20;;;;;;5045062;28;19912;-71
2022/09/29 01:50:00;;;;;;;;;;;10.50;91.20;;;;;;5048693;28;19984;-71
2022/09/29 01:52:28;;;;;;;;;;;10.50;91.20;;;;;;5042721;28;19912;-70
2022/09/29 01:54:57;;;;;;;;;;;10.50;91.20;;;;;;5042462;28;20004;-71
2022/09/29 01:57:25;;;;;;;;;;;10.50;91.20;;;;;;5045074;28;19917;-71
2022/09/29 01:59:57;;;;;;;;;;;10.50;91.20;;;;;;5044637;28;19927;-71
2022/09/29 02:02:35;;;;;;;;;;;10.50;91.20;;;;;;5046499;28;20008;-71
2022/09/29 02:05:03;;;;;;;;;;;10.40;91.20;;;;;;5046201;28;19974;-71
2022/09/29 02:07:32;;;;;;;;;;;10.40;91.20;;;;;;5046144;28;19917;-71
2022/09/29 02:10:01;;;;;;;;;;;10.40;91.20;;;;;;5044323;28;19924;-71
2022/09/29 02:12:31;;;;;;;;;;;10.40;91.20;;;;;;5046214;28;19952;-71
2022/09/29 02:14:57;;;;;;;;;;;10.40;91.30;;;;;;5044226;28;19917;-71
2022/09/29 02:17:30;;;;;;;;;;;10.40;91.20;;;;;;5046794;28;19917;-71
2022/09/29 02:19:55;;;;;;;;;;;10.40;91.30;;;;;;5044519;28;19924;-71
2022/09/29 02:22:21;;;;;;;;;;;10.40;91.20;;;;;;5046392;28;19917;-71
2022/09/29 02:24:47;;;;;;;;;;;10.40;91.20;;;;;;5045492;28;19990;-71
2022/09/29 02:27:13;;;;;;;;;;;10.40;91.20;;;;;;5044782;28;19919;-71
2022/09/29 02:29:39;;;;;;;;;;;10.40;91.20;;;;;;5046844;28;19916;-71
2022/09/29 02:32:05;;;;;;;;;;;10.40;91.20;;;;;;5028202;28;19909;-71
2022/09/29 02:34:32;;;;;;;;;;;10.30;91.20;;;;;;5043325;28;19996;-71
2022/09/29 02:37:01;;;;;;;;;;;10.40;91.30;;;;;;5045505;28;19967;-71
2022/09/29 02:39:32;;;;;;;;;;;10.30;91.20;;;;;;5044418;28;20494;-71
2022/09/29 02:42:16;;;;;;;;;;;10.30;91.20;;;;;;5045970;28;20634;-71
2022/09/29 02:45:01;;;;;;;;;;;10.30;91.20;;;;;;5043573;28;20373;-71
2022/09/29 02:47:27;;;;;;;;;;;10.30;91.20;;;;;;5043784;28;19917;-71
2022/09/29 02:49:56;;;;;;;;;;;10.30;91.20;;;;;;5043269;28;20304;-71
2022/09/29 02:52:25;;;;;;;;;;;10.40;91.20;;;;;;5045714;28;19920;-71
2022/09/29 02:54:50;;;;;;;;;;;10.30;91.10;;;;;;5043257;28;20069;-71
2022/09/29 02:57:26;;;;;;;;;;;10.30;91.10;;;;;;5045891;28;20772;-71
2022/09/29 03:00:10;;;;;;;;;;;10.40;91.20;;;;;;5043243;28;20695;-71
2022/09/29 03:02:36;;;;;;;;;;;10.40;91.20;;;;;;5043849;28;19967;-71
2022/09/29 03:05:03;;;;;;;;;;;10.40;91.20;;;;;;5045279;28;19917;-70
2022/09/29 03:07:29;;;;;;;;;;;10.40;91.20;;;;;;5043352;28;19920;-71
2022/09/29 03:09:54;;;;;;;;;;;10.40;91.20;;;;;;5047224;28;19912;-71
2022/09/29 03:12:20;;;;;;;;;;;10.40;91.20;;;;;;5043151;28;20003;-71
2022/09/29 03:14:45;;;;;;;;;;;10.40;91.20;;;;;;5044544;28;19916;-71
2022/09/29 03:17:11;;;;;;;;;;;10.40;91.20;;;;;;5042650;28;19925;-71
2022/09/29 03:19:36;;;;;;;;;;;10.40;91.20;;;;;;5047917;28;20512;-70
2022/09/29 03:22:02;;;;;;;;;;;10.40;91.20;;;;;;5044468;28;19923;-71
2022/09/29 03:24:28;;;;;;;;;;;10.40;91.20;;;;;;5044600;28;19921;-71
2022/09/29 03:26:54;;;;;;;;;;;10.40;91.20;;;;;;5045421;28;19927;-71
2022/09/29 03:29:19;;;;;;;;;;;10.40;91.20;;;;;;5047594;28;19919;-71
2022/09/29 03:31:44;;;;;;;;;;;10.40;91.20;;;;;;5043851;28;19920;-70
2022/09/29 03:34:10;;;;;;;;;;;10.40;91.20;;;;;;5044946;28;19923;-71
2022/09/29 03:36:35;;;;;;;;;;;10.40;91.20;;;;;;5042839;28;19912;-71
2022/09/29 03:39:01;;;;;;;;;;;10.40;91.20;;;;;;5044503;28;19928;-71
2022/09/29 03:41:26;;;;;;;;;;;10.40;91.20;;;;;;5042839;28;19913;-71
2022/09/29 03:43:52;;;;;;;;;;;10.40;91.30;;;;;;5032418;28;19956;-71
2022/09/29 03:46:17;;;;;;;;;;;10.30;91.20;;;;;;5044666;28;19966;-70
2022/09/29 03:48:43;;;;;;;;;;;10.30;91.20;;;;;;5042533;28;19967;-71
2022/09/29 03:51:09;;;;;;;;;;;10.30;91.30;;;;;;5044590;28;20304;-71
2022/09/29 03:53:35;;;;;;;;;;;10.30;91.40;;;;;;5042981;28;20519;-71
2022/09/29 03:56:01;;;;;;;;;;;10.30;91.30;;;;;;5043598;28;19913;-71
2022/09/29 03:58:26;;;;;;;;;;;10.30;91.30;;;;;;5040139;28;20392;-71
2022/09/29 04:00:52;;;;;;;;;;;10.30;91.30;;;;;;5044886;28;19920;-71
2022/09/29 04:03:18;;;;;;;;;;;10.20;91.30;;;;;;5041800;28;19944;-71
2022/09/29 04:05:44;;;;;;;;;;;10.20;91.30;;;;;;5044787;28;20004;-71
2022/09/29 04:08:09;;;;;;;;;;;10.20;91.30;;;;;;5042534;28;19924;-71
2022/09/29 04:10:36;;;;;;;;;;;10.20;91.30;;;;;;5044285;28;19917;-71
2022/09/29 04:13:01;;;;;;;;;;;10.20;91.30;;;;;;5042764;28;19928;-71
2022/09/29 04:15:27;;;;;;;;;;;10.20;91.30;;;;;;5044538;28;19940;-71
2022/09/29 04:17:52;;;;;;;;;;;10.10;91.30;;;;;;5042683;28;19967;-71
2022/09/29 04:20:18;;;;;;;;;;;10.10;91.30;;;;;;5043864;28;19994;-71
2022/09/29 04:22:43;;;;;;;;;;;10.10;91.30;;;;;;5044630;28;19920;-70
2022/09/29 04:25:09;;;;;;;;;;;10.10;91.30;;;;;;5041884;28;19928;-71
2022/09/29 04:27:34;;;;;;;;;;;10.10;91.30;;;;;;5044897;28;20011;-71
2022/09/29 04:29:59;;;;;;;;;;;10.10;91.30;;;;;;5042111;28;19920;-71
2022/09/29 04:32:25;;;;;;;;;;;10.00;91.30;;;;;;5044714;28;20488;-71
2022/09/29 04:34:51;;;;;;;;;;;10.00;91.30;;;;;;5039869;28;19920;-71
2022/09/29 04:37:16;;;;;;;;;;;10.00;91.30;;;;;;5043944;28;19917;-71
2022/09/29 04:39:42;;;;;;;;;;;10.00;91.30;;;;;;5042618;28;19924;-71
2022/09/29 04:42:07;;;;;;;;;;;10.00;91.30;;;;;;5043987;28;20520;-71
2022/09/29 04:44:33;;;;;;;;;;;10.00;91.40;;;;;;5040984;28;20399;-71
2022/09/29 04:47:00;;;;;;;;;;;10.00;91.30;;;;;;5043587;28;21464;-71
2022/09/29 04:49:25;;;;;;;;;;;9.90;91.30;;;;;;5042126;28;20011;-71
2022/09/29 04:51:51;;;;;;;;;;;9.90;91.30;;;;;;5044110;28;19916;-71
2022/09/29 04:54:16;;;;;;;;;;;9.90;91.30;;;;;;5041905;28;20565;-70
2022/09/29 04:56:42;;;;;;;;;;;9.90;91.30;;;;;;5044281;28;19920;-71
2022/09/29 04:59:08;;;;;;;;;;;9.90;91.30;;;;;;5046438;28;19924;-71
2022/09/29 05:01:33;;;;;;;;;;;9.90;91.30;;;;;;5045169;28;19917;-71
2022/09/29 05:03:59;;;;;;;;;;;9.90;91.30;;;;;;5049100;28;19915;-71
2022/09/29 05:06:25;;;;;;;;;;;9.80;91.30;;;;;;5045454;28;19921;-70
2022/09/29 05:08:50;;;;;;;;;;;9.90;91.30;;;;;;5047467;28;20121;-70
2022/09/29 05:11:16;;;;;;;;;;;9.80;91.30;;;;;;5046704;28;19993;-71
2022/09/29 05:13:41;;;;;;;;;;;9.80;91.30;;;;;;5047613;28;19916;-70
2022/09/29 05:16:07;;;;;;;;;;;9.80;91.30;;;;;;5045107;28;19927;-70
2022/09/29 05:18:32;;;;;;;;;;;9.80;91.30;;;;;;5049598;28;19924;-71
2022/09/29 05:21:05;;;;;;;;;;;9.80;91.30;;;;;;5044296;28;19921;-71
2022/09/29 05:23:30;;;;;;;;;;;9.80;91.20;;;;;;5047279;28;20258;-71
2022/09/29 05:26:00;;;;;;;;;;;9.80;91.20;;;;;;5045144;28;19928;-71
2022/09/29 05:28:25;;;;;;;;;;;9.80;91.20;;;;;;5044526;28;19919;-71
2022/09/29 05:30:51;;;;;;;;;;;9.70;91.20;;;;;;5044754;28;19921;-71
2022/09/29 05:33:16;;;;;;;;;;;9.70;91.20;;;;;;5047632;28;19916;-71
2022/09/29 05:35:41;;;;;;;;;;;9.70;91.20;;;;;;5047216;28;20521;-71
2022/09/29 05:38:07;;;;;;;;;;;9.70;91.20;;;;;;5044904;28;19928;-71
2022/09/29 05:40:34;;;;;;;;;;;9.70;91.20;;;;;;5047045;28;19913;-71
2022/09/29 05:43:00;;;;;;;;;;;9.70;91.20;;;;;;5045001;28;19966;-71
2022/09/29 05:45:25;;;;;;;;;;;9.70;91.20;;;;;;5046777;28;20665;-71
2022/09/29 05:47:51;;;;;;;;;;;9.70;91.20;;;;;;5045176;28;20003;-71
2022/09/29 05:50:16;;;;;;;;;;;9.70;91.20;;;;;;5046649;28;19921;-71
2022/09/29 05:52:41;;;;;;;;;;;9.70;91.20;;;;;;5044963;28;19919;-71
2022/09/29 05:55:08;;;;;;;;;;;9.70;91.20;;;;;;5048069;28;19917;-71
2022/09/29 05:57:34;;;;;;;;;;;9.70;91.20;;;;;;5044253;28;19913;-71
2022/09/29 06:00:00;;;;;;;;;;;9.70;91.20;;;;;;5047093;28;19913;-71
2022/09/29 06:02:26;;;;;;;;;;;9.60;91.10;;;;;;5044492;28;20023;-71
2022/09/29 06:04:51;;;;;;;;;;;9.60;91.10;;;;;;5046596;28;20035;-71
2022/09/29 06:07:17;;;;;;;;;;;9.60;91.10;;;;;;5044412;28;19921;-70
2022/09/29 06:09:42;;;;;;;;;;;9.60;91.10;;;;;;5048679;28;19920;-71
2022/09/29 06:12:08;;;;;;;;;;;9.60;91.10;;;;;;5045771;28;19912;-71
2022/09/29 06:14:33;;;;;;;;;;;9.60;91.10;;;;;;5044779;28;20009;-70
2022/09/29 06:16:59;;;;;;;;;;;9.60;91.10;;;;;;5046753;28;19912;-70
2022/09/29 06:19:24;;;;;;;;;;;9.60;91.10;;;;;;5044171;28;19923;-71
2022/09/29 06:21:50;;;;;;;;;;;9.60;91.10;;;;;;5045971;28;20571;-71
2022/09/29 06:24:15;;;;;;;;;;;9.60;91.10;;;;;;5043698;28;19936;-71
2022/09/29 06:26:41;;;;;;;;;;;9.60;91.10;;;;;;5046500;28;19998;-71
2022/09/29 06:29:06;;;;;;;;;;;9.60;91.10;;;;;;5043806;28;19923;-71
2022/09/29 06:31:32;;;;;;;;;;;9.60;91.10;;;;;;5046190;28;19944;-71
2022/09/29 06:33:58;;;;;;;;;;;9.60;91.10;;;;;;5043764;28;19917;-71
2022/09/29 06:39:12;;;;;;;;;;;9.60;91.10;;;;;;5041107;28;19931;-71
2022/09/29 06:41:37;;;;;;;;;;;9.60;91.10;;;;;;5027581;28;19916;-71
2022/09/29 06:44:03;;;;;;;;;;;9.60;91.10;;;;;;5042930;28;19979;-70
2022/09/29 06:46:28;;;;;;;;;;;9.60;91.10;;;;;;5031167;28;19927;-71
2022/09/29 06:48:54;;;;;;;;;;;9.60;91.00;;;;;;5043842;28;19956;-71
2022/09/29 06:51:21;;;;;;;;;;;9.60;91.10;;;;;;5046000;28;20709;-71
2022/09/29 06:53:47;;;;;;;;;;;9.60;91.00;;;;;;5044194;28;19912;-71
2022/09/29 06:56:12;;;;;;;;;;;9.60;91.00;;;;;;5044849;28;19913;-71
2022/09/29 06:58:38;;;;;;;;;;;9.70;91.00;;;;;;5045515;28;19919;-70
2022/09/29 07:01:04;;;;;;;;;;;9.70;91.00;;;;;;5025789;28;19948;-71
2022/09/29 07:03:30;;;;;;;;;;;9.70;91.30;;;;;;5045363;28;19919;-71
2022/09/29 07:05:56;;;;;;;;;;;9.70;91.00;;;;;;5042983;28;19920;-71
2022/09/29 07:08:22;;;;;;;;;;;9.70;91.00;;;;;;5045857;28;19913;-71
2022/09/29 07:10:47;;;;;;;;;;;9.70;91.00;;;;;;5042772;28;19917;-71
2022/09/29 07:13:13;;;;;;;;;;;9.70;91.10;;;;;;5050106;28;19919;-71
2022/09/29 07:15:38;;;;;;;;;;;9.70;91.00;;;;;;5042401;28;20348;-71
2022/09/29 07:18:04;;;;;;;;;;;9.80;91.00;;;;;;5045760;28;20839;-71
2022/09/29 07:20:30;;;;;;;;;;;9.70;91.00;;;;;;5042042;28;19928;-71
2022/09/29 07:22:56;;;;;;;;;;;9.70;91.00;;;;;;5045655;28;19952;-71
2022/09/29 07:25:23;;;;;;;;;;;9.80;91.00;;;;;;5042447;28;20027;-71
2022/09/29 07:27:50;;;;;;;;;;;9.80;91.00;;;;;;5027686;28;19913;-70
2022/09/29 07:30:16;;;;;;;;;;;9.80;91.00;;;;;;5045418;28;19915;-71
2022/09/29 07:32:42;;;;;;;;;;;9.80;91.00;;;;;;5044605;28;19917;-70
2022/09/29 07:35:07;;;;;;;;;;;9.80;91.00;;;;;;5044954;28;19924;-73
2022/09/29 07:37:33;;;;;;;;;;;9.80;90.90;;;;;;5042788;28;19925;-73
2022/09/29 07:39:58;;;;;;;;;;;9.90;91.00;;;;;;5046691;28;19913;-73
2022/09/29 07:42:26;;;;;;;;;;;9.90;91.00;;;;;;5043018;28;20569;-73
2022/09/29 07:44:52;;;;;;;;;;;9.90;91.00;;;;;;5042846;28;19921;-73
2022/09/29 07:47:18;;;;;;;;;;;9.90;90.90;;;;;;5042877;28;19998;-73
2022/09/29 07:49:44;;;;;;;;;;;9.90;90.90;;;;;;5044938;28;20060;-73
2022/09/29 07:52:09;;;;;;;;;;;10.00;90.90;;;;;;5042655;28;20286;-73
2022/09/29 07:54:34;;;;;;;;;;;10.00;90.80;;;;;;5044930;28;19919;-73
2022/09/29 07:57:02;;;;;;;;;;;10.00;90.80;;;;;;5042868;28;20000;-71
2022/09/29 07:59:28;;;;;;;;;;;10.00;90.80;;;;;;5044636;28;19923;-70
2022/09/29 08:01:53;;;;;;;;;;;10.10;90.80;;;;;;5042735;28;19916;-71
2022/09/29 08:04:19;;;;;;;;;;;10.10;90.80;;;;;;5044488;28;19913;-71
2022/09/29 08:06:45;;;;;;;;;;;10.20;90.80;;;;;;5042363;28;19928;-71
2022/09/29 08:09:11;;;;;;;;;;;10.20;90.70;;;;;;5045130;28;19919;-71
2022/09/29 08:11:37;;;;;;;;;;;10.20;90.70;;;;;;5044082;28;19913;-71
2022/09/29 08:14:03;;;;;;;;;;;10.20;90.60;;;;;;5042532;28;19916;-71
2022/09/29 08:16:31;;;;;;;;;;;10.30;90.60;;;;;;5043706;28;19917;-70
2022/09/29 08:18:57;;;;;;;;;;;10.30;90.60;;;;;;5042640;28;19917;-70
2022/09/29 08:21:22;;;;;;;;;;;10.40;90.60;;;;;;5044485;28;20326;-70
2022/09/29 08:23:48;;;;;;;;;;;10.40;90.50;;;;;;5042346;28;19917;-70
2022/09/29 08:26:15;;;;;;;;;;;10.40;90.50;;;;;;5044505;28;19921;-70
2022/09/29 08:28:41;;;;;;;;;;;10.50;90.40;;;;;;5042737;28;19921;-70
2022/09/29 08:31:13;;;;;;;;;;;10.50;90.40;;;;;;5046001;28;19951;-70
2022/09/29 08:33:39;;;;;;;;;;;10.50;90.40;;;;;;5043392;28;19917;-70
2022/09/29 08:36:13;;;;;;;;;;;10.60;90.40;;;;;;5048457;28;19913;-70
2022/09/29 08:38:52;;;;;;;;;;;10.60;90.40;;;;;;5045460;28;19923;-70
2022/09/29 08:41:31;;;;;;;;;;;10.60;90.30;;;;;;5045437;28;19982;-70
2022/09/29 08:43:59;;;;;;;;;;;10.60;90.30;;;;;;5045287;28;20664;-70
2022/09/29 08:46:27;;;;;;;;;;;10.70;90.30;;;;;;5048239;28;19948;-70
2022/09/29 08:48:55;;;;;;;;;;;10.70;90.30;;;;;;5045840;28;20343;-70
2022/09/29 08:51:20;;;;;;;;;;;10.70;90.30;;;;;;5047154;28;20042;-70
2022/09/29 08:53:48;;;;;;;;;;;10.70;90.30;;;;;;5046347;28;19927;-70
2022/09/29 08:56:14;;;;;;;;;;;10.80;90.20;;;;;;5047693;28;20419;-70
2022/09/29 08:58:40;;;;;;;;;;;10.80;90.30;;;;;;5046248;28;19921;-71
2022/09/29 09:01:26;;;;;;;;;;;10.80;90.20;;;;;;5047599;28;19974;-70
2022/09/29 09:03:51;;;;;;;;;;;10.80;90.20;;;;;;5044023;28;19917;-70
2022/09/29 09:06:40;;;;;;;;;;;10.90;90.10;;;;;;5047565;28;19920;-70
2022/09/29 09:09:06;;;;;;;;;;;10.90;90.10;;;;;;5045507;28;19966;-70
2022/09/29 09:12:04;;;;;;;;;;;10.90;90.10;;;;;;5030299;28;19912;-70
2022/09/29 09:14:29;;;;;;;;;;;10.90;90.00;;;;;;5008899;28;19921;-70
2022/09/29 09:17:15;;;;;;;;;;;10.90;90.00;;;;;;5047513;28;19913;-70
2022/09/29 09:19:55;;;;;;;;;;;10.90;90.00;;;;;;5047304;28;19943;-71
2022/09/29 09:22:28;;;;;;;;;;;11.00;89.90;;;;;;5047332;28;20012;-70
2022/09/29 09:25:00;;;;;;;;;;;11.00;89.90;;;;;;5045094;28;19927;-70
2022/09/29 09:27:29;;;;;;;;;;;11.10;90.00;;;;;;5047592;28;19913;-70
2022/09/29 09:30:00;;;;;;;;;;;11.10;89.80;;;;;;5045180;28;19917;-70
2022/09/29 09:32:27;;;;;;;;;;;11.10;89.90;;;;;;5047462;28;19955;-70
2022/09/29 09:34:59;;;;;;;;;;;11.10;89.60;;;;;;5047083;28;19934;-71
2022/09/29 09:37:27;;;;;;;;;;;11.20;89.90;;;;;;5046192;28;20556;-70
2022/09/29 09:40:10;;;;;;;;;;;11.20;89.40;;;;;;5046926;28;19955;-71
2022/09/29 09:42:38;;;;;;;;;;;11.20;89.30;;;;;;5046169;28;19916;-70
2022/09/29 09:45:06;;;;;;;;;;;11.30;89.10;;;;;;5046960;28;20605;-71
2022/09/29 09:47:58;;;;;;;;;;;11.40;89.30;;;;;;5045096;28;19927;-71
2022/09/29 09:50:24;;;;;;;;;;;11.40;89.10;;;;;;5042247;28;19997;-70
2022/09/29 09:52:50;;;;;;;;;;;11.40;89.10;;;;;;5044607;28;19924;-70
2022/09/29 09:55:17;;;;;;;;;;;11.40;89.70;;;;;;5046478;28;19909;-70
2022/09/29 09:57:42;;;;;;;;;;;11.40;89.10;;;;;;5044276;28;19928;-71
2022/09/29 10:00:13;;;;;;;;;;;11.40;89.10;;;;;;5045941;28;19917;-70
2022/09/29 10:02:42;;;;;;;;;;;11.50;89.20;;;;;;5042227;28;19970;-70
2022/09/29 10:05:11;;;;;;;;;;;11.50;89.10;;;;;;5047287;28;20377;-70
2022/09/29 10:07:36;;;;;;;;;;;11.50;88.90;;;;;;5043111;28;20281;-70
2022/09/29 10:10:04;;;;;;;;;;;11.60;88.70;;;;;;5046789;28;19913;-70
2022/09/29 10:12:30;;;;;;;;;;;11.60;88.60;;;;;;5044253;28;19917;-70
2022/09/29 10:15:00;;;;;;;;;;;11.70;88.60;;;;;;5045763;28;19920;-70
2022/09/29 10:17:32;;;;;;;;;;;11.70;88.70;;;;;;5024377;28;20447;-70
2022/09/29 10:19:57;;;;;;;;;;;11.70;88.70;;;;;;5046010;28;19919;-70
2022/09/29 10:22:23;;;;;;;;;;;11.80;88.80;;;;;;5042984;28;20284;-70
2022/09/29 10:25:12;;;;;;;;;;;11.80;88.40;;;;;;5045749;28;19935;-70
2022/09/29 10:27:49;;;;;;;;;;;11.90;88.40;;;;;;5043681;28;20003;-70
2022/09/29 10:30:16;;;;;;;;;;;11.90;88.30;;;;;;5045841;28;19927;-70
2022/09/29 10:32:42;;;;;;;;;;;11.90;88.30;;;;;;5043731;28;19967;-70
2022/09/29 10:35:16;;;;;;;;;;;11.90;88.30;;;;;;5043721;28;19917;-70
2022/09/29 10:37:45;;;;;;;;;;;11.90;88.40;;;;;;5043146;28;19928;-70
2022/09/29 10:40:20;;;;;;;;;;;12.00;88.30;;;;;;5045208;28;19916;-70
2022/09/29 10:42:47;;;;;;;;;;;12.00;88.00;;;;;;5043639;28;19923;-70
2022/09/29 10:45:26;;;;;;;;;;;12.10;87.90;;;;;;5046025;28;19968;-70
2022/09/29 10:47:58;;;;;;;;;;;12.20;87.70;;;;;;5041335;28;19944;-70
2022/09/29 10:50:25;;;;;;;;;;;12.20;87.50;;;;;;5043796;28;19916;-70
2022/09/29 10:53:02;;;;;;;;;;;12.30;87.50;;;;;;5045863;28;19969;-70
2022/09/29 10:55:28;;;;;;;;;;;12.40;87.50;;;;;;5043964;28;19923;-70
2022/09/29 10:57:55;;;;;;;;;;;12.40;87.20;;;;;;5046111;28;19909;-70
2022/09/29 11:00:25;;;;;;;;;;;12.50;87.10;;;;;;5043407;28;19954;-70
2022/09/29 11:02:52;;;;;;;;;;;12.60;86.90;;;;;;5046085;28;19948;-70
2022/09/29 11:05:24;;;;;;;;;;;12.60;86.90;;;;;;5043262;28;19939;-70
2022/09/29 11:07:51;;;;;;;;;;;12.70;86.70;;;;;;5045724;28;19913;-70
2022/09/29 11:10:27;;;;;;;;;;;12.80;86.60;;;;;;5043233;28;19916;-70
2022/09/29 11:12:52;;;;;;;;;;;12.90;86.50;;;;;;5032466;28;20481;-70
2022/09/29 11:15:23;;;;;;;;;;;13.00;86.40;;;;;;5045168;28;19924;-70
2022/09/29 11:17:49;;;;;;;;;;;13.00;86.20;;;;;;5045653;28;20314;-70
2022/09/29 11:20:17;;;;;;;;;;;13.10;86.30;;;;;;5042679;28;19931;-70
2022/09/29 11:22:49;;;;;;;;;;;13.20;86.30;;;;;;5048475;28;19920;-70
2022/09/29 11:25:21;;;;;;;;;;;13.30;86.30;;;;;;5042652;28;19924;-69
2022/09/29 11:27:59;;;;;;;;;;;13.40;85.60;;;;;;5045553;28;20384;-69
2022/09/29 11:30:45;;;;;;;;;;;13.50;85.10;;;;;;5042707;28;19920;-69
2022/09/29 11:33:29;;;;;;;;;;;13.60;84.90;;;;;;5043016;28;20266;-69
2022/09/29 11:36:13;;;;;;;;;;;13.70;84.50;;;;;;5040040;28;19916;-69
2022/09/29 11:38:57;;;;;;;;;;;13.80;84.20;;;;;;5044612;28;19984;-69
2022/09/29 11:41:31;;;;;;;;;;;13.90;83.90;;;;;;5043647;28;19966;-69
2022/09/29 11:44:02;;;;;;;;;;;14.00;83.60;;;;;;5045038;28;19913;-69
2022/09/29 11:46:46;;;;;;;;;;;13.90;84.40;;;;;;5042722;28;19920;-69
2022/09/29 11:49:20;;;;;;;;;;;13.90;84.50;;;;;;5045356;28;19917;-69
2022/09/29 11:51:48;;;;;;;;;;;13.90;84.90;;;;;;5042159;28;19928;-69
2022/09/29 11:54:16;;;;;;;;;;;14.10;84.80;;;;;;5045144;28;19936;-69
2022/09/29 11:56:48;;;;;;;;;;;14.20;84.20;;;;;;5041892;28;19925;-69
2022/09/29 11:59:13;;;;;;;;;;;14.30;83.80;;;;;;5044843;28;19959;-69
2022/09/29 12:01:42;;;;;;;;;;;14.40;83.50;;;;;;5040458;28;20369;-69
2022/09/29 12:04:26;;;;;;;;;;;14.50;83.30;;;;;;5045091;28;19917;-69
2022/09/29 12:06:56;;;;;;;;;;;14.50;83.30;;;;;;5042480;28;19920;-69
2022/09/29 12:09:34;;;;;;;;;;;14.60;83.10;;;;;;5048324;28;19924;-69
2022/09/29 12:11:59;;;;;;;;;;;14.70;83.00;;;;;;5045095;28;19916;-69
2022/09/29 12:14:35;;;;;;;;;;;14.80;83.10;;;;;;5048600;28;20574;-69
2022/09/29 12:17:03;;;;;;;;;;;14.70;83.10;;;;;;5045986;28;19927;-69
2022/09/29 12:19:31;;;;;;;;;;;14.70;83.10;;;;;;5046308;28;20066;-69
2022/09/29 12:21:58;;;;;;;;;;;14.80;83.30;;;;;;5043624;28;19916;-69
2022/09/29 12:24:23;;;;;;;;;;;14.90;83.30;;;;;;5047197;28;20430;-70
2022/09/29 12:26:50;;;;;;;;;;;14.90;82.90;;;;;;5049288;28;19919;-69
2022/09/29 12:29:21;;;;;;;;;;;15.00;82.80;;;;;;5048729;28;20019;-69
2022/09/29 12:31:49;;;;;;;;;;;15.10;83.40;;;;;;5046887;28;20034;-69
2022/09/29 12:34:23;;;;;;;;;;;15.20;83.20;;;;;;5048284;28;19916;-69
2022/09/29 12:37:01;;;;;;;;;;;15.20;83.40;;;;;;5046495;28;19912;-69
2022/09/29 12:39:38;;;;;;;;;;;15.10;83.60;;;;;;5047733;28;20050;-69
2022/09/29 12:42:04;;;;;;;;;;;15.10;83.90;;;;;;5045386;28;20341;-69
2022/09/29 12:44:32;;;;;;;;;;;15.10;84.00;;;;;;5045565;28;19917;-70
2022/09/29 12:47:08;;;;;;;;;;;15.10;84.30;;;;;;5048116;28;19990;-69
2022/09/29 12:49:59;;;;;;;;;;;15.00;84.40;;;;;;5036414;28;19952;-70
2022/09/29 12:52:28;;;;;;;;;;;15.10;84.60;;;;;;5048294;28;20362;-69
2022/09/29 12:54:56;;;;;;;;;;;15.10;84.80;;;;;;5046444;28;19913;-69
2022/09/29 12:57:25;;;;;;;;;;;15.00;84.80;;;;;;5047843;28;19921;-70
2022/09/29 12:59:58;;;;;;;;;;;15.00;84.80;;;;;;5044029;28;20066;-69
2022/09/29 13:02:36;;;;;;;;;;;15.00;85.00;;;;;;5046404;28;20369;-69
2022/09/29 13:05:25;;;;;;;;;;;15.10;85.00;;;;;;5045486;28;19948;-70
2022/09/29 13:07:53;;;;;;;;;;;15.20;85.00;;;;;;5004135;28;19952;-69
2022/09/29 13:10:27;;;;;;;;;;;15.20;84.60;;;;;;5045231;28;19919;-70
2022/09/29 13:13:11;;;;;;;;;;;15.20;84.90;;;;;;5047941;28;19971;-70
2022/09/29 13:15:56;;;;;;;;;;;15.30;84.30;;;;;;5044577;28;19913;-69
2022/09/29 13:18:36;;;;;;;;;;;15.40;84.20;;;;;;5045715;28;19917;-70
2022/09/29 13:21:08;;;;;;;;;;;15.40;83.30;;;;;;5044743;28;19921;-70
2022/09/29 13:23:52;;;;;;;;;;;15.40;84.40;;;;;;5047713;28;19952;-69
2022/09/29 13:26:23;;;;;;;;;;;15.40;84.60;;;;;;5046405;28;20010;-69
2022/09/29 13:28:53;;;;;;;;;;;15.30;84.60;;;;;;5046196;28;19919;-69
2022/09/29 13:31:21;;;;;;;;;;;15.20;84.60;;;;;;5044327;28;20415;-70
2022/09/29 13:33:52;;;;;;;;;;;15.20;84.90;;;;;;5047515;28;19917;-70
2022/09/29 13:36:28;;;;;;;;;;;15.20;85.10;;;;;;5046268;28;20576;-70
2022/09/29 13:38:57;;;;;;;;;;;15.20;85.10;;;;;;5047588;28;20010;-69
2022/09/29 13:41:22;;;;;;;;;;;15.30;85.10;;;;;;5045028;28;20332;-70
2022/09/29 13:43:48;;;;;;;;;;;15.30;85.10;;;;;;5047035;28;19912;-70
2022/09/29 13:46:29;;;;;;;;;;;15.30;85.10;;;;;;5046329;28;20297;-69
2022/09/29 13:49:15;;;;;;;;;;;15.40;85.10;;;;;;5046954;28;19988;-69
2022/09/29 13:51:49;;;;;;;;;;;15.50;84.60;;;;;;5027997;28;20002;-69
2022/09/29 13:54:38;;;;;;;;;;;15.40;84.40;;;;;;5047327;28;20750;-69
2022/09/29 13:57:24;;;;;;;;;;;15.50;84.30;;;;;;5041372;28;20259;-69
2022/09/29 13:59:55;;;;;;;;;;;15.60;84.20;;;;;;5046846;28;20308;-69
2022/09/29 14:02:24;;;;;;;;;;;15.60;84.30;;;;;;5046599;28;19924;-70
2022/09/29 14:04:50;;;;;;;;;;;15.60;84.30;;;;;;5047139;28;19955;-69
2022/09/29 14:07:34;;;;;;;;;;;15.70;84.00;;;;;;5044273;28;19986;-69
2022/09/29 14:10:06;;;;;;;;;;;15.70;83.90;;;;;;5047242;28;19970;-69
2022/09/29 14:12:33;;;;;;;;;;;15.70;84.10;;;;;;5043302;28;19959;-70
2022/09/29 14:14:59;;;;;;;;;;;15.70;84.20;;;;;;5046447;28;19924;-69
2022/09/29 14:17:27;;;;;;;;;;;15.80;83.90;;;;;;5044504;28;19916;-69
2022/09/29 14:19:52;;;;;;;;;;;15.80;84.10;;;;;;5047110;28;19921;-69
2022/09/29 14:22:38;;;;;;;;;;;15.80;84.00;;;;;;5044028;28;19924;-69
2022/09/29 14:25:07;;;;;;;;;;;15.90;83.90;;;;;;5033950;28;20269;-69
2022/09/29 14:27:50;;;;;;;;;;;15.90;83.80;;;;;;5044065;28;19963;-69
2022/09/29 14:30:39;;;;;;;;;;;15.90;84.20;;;;;;5043789;28;20000;-69
2022/09/29 14:33:11;;;;;;;;;;;16.00;83.90;;;;;;5033868;28;20257;-69